sensor_id;sensor_type;location;lat;lon;timestamp;P1;durP1;ratioP1;P2;durP2;ratioP2
47289;SDS011;33197;52.524;13.444;2022-08-04T00:01:59;4.72;;;3.05;;
47289;SDS011;33197;52.524;13.444;2022-08-04T00:04:31;7.18;;;4.00;;
47289;SDS011;33197;52.524;13.444;2022-08-04T00:07:30;7.38;;;3.72;;
47289;SDS011;33197;52.524;13.444;2022-08-04T00:10:11;6.18;;;3.58;;
47289;SDS011;33197;52.524;13.444;2022-08-04T00:12:40;6.30;;;3.38;;
47289;SDS011;33197;52.524;13.444;2022-08-04T00:15:11;5.40;;;3.78;;
47289;SDS011;33197;52.524;13.444;2022-08-04T00:17:48;4.57;;;3.47;;
47289;SDS011;33197;52.524;13.444;2022-08-04T00:20:20;6.18;;;3.25;;
47289;SDS011;33197;52.524;13.444;2022-08-04T00:22:48;5.82;;;3.25;;
47289;SDS011;33197;52.524;13.444;2022-08-04T00:25:17;9.13;;;3.95;;
47289;SDS011;33197;52.524;13.444;2022-08-04T00:27:45;4.22;;;3.38;;
47289;SDS011;33197;52.524;13.444;2022-08-04T00:30:12;5.47;;;3.08;;
47289;SDS011;33197;52.524;13.444;2022-08-04T00:32:40;7.88;;;3.38;;
47289;SDS011;33197;52.524;13.444;2022-08-04T00:35:07;5.93;;;3.25;;
47289;SDS011;33197;52.524;13.444;2022-08-04T00:37:36;8.15;;;3.72;;
47289;SDS011;33197;52.524;13.444;2022-08-04T00:42:46;7.50;;;3.60;;
47289;SDS011;33197;52.524;13.444;2022-08-04T00:45:43;5.82;;;3.80;;
47289;SDS011;33197;52.524;13.444;2022-08-04T00:51:32;4.10;;;3.20;;
47289;SDS011;33197;52.524;13.444;2022-08-04T00:54:11;6.20;;;3.13;;
47289;SDS011;33197;52.524;13.444;2022-08-04T01:00:03;7.05;;;3.22;;
47289;SDS011;33197;52.524;13.444;2022-08-04T01:02:53;4.45;;;3.28;;
47289;SDS011;33197;52.524;13.444;2022-08-04T01:14:28;3.80;;;3.03;;
47289;SDS011;33197;52.524;13.444;2022-08-04T01:17:15;4.38;;;3.20;;
47289;SDS011;33197;52.524;13.444;2022-08-04T01:20:00;4.57;;;2.90;;
47289;SDS011;33197;52.524;13.444;2022-08-04T01:25:20;7.28;;;3.05;;
47289;SDS011;33197;52.524;13.444;2022-08-04T01:31:12;9.73;;;3.50;;
47289;SDS011;33197;52.524;13.444;2022-08-04T01:33:48;4.70;;;3.05;;
47289;SDS011;33197;52.524;13.444;2022-08-04T01:36:32;6.80;;;3.28;;
47289;SDS011;33197;52.524;13.444;2022-08-04T01:39:01;5.75;;;3.42;;
47289;SDS011;33197;52.524;13.444;2022-08-04T01:41:47;10.00;;;3.80;;
47289;SDS011;33197;52.524;13.444;2022-08-04T01:44:23;7.75;;;3.35;;
47289;SDS011;33197;52.524;13.444;2022-08-04T01:46:53;6.70;;;3.30;;
47289;SDS011;33197;52.524;13.444;2022-08-04T01:49:20;4.22;;;3.05;;
47289;SDS011;33197;52.524;13.444;2022-08-04T01:51:50;7.70;;;3.50;;
47289;SDS011;33197;52.524;13.444;2022-08-04T01:54:18;4.90;;;3.42;;
47289;SDS011;33197;52.524;13.444;2022-08-04T01:56:46;8.57;;;3.75;;
47289;SDS011;33197;52.524;13.444;2022-08-04T01:59:14;3.53;;;2.72;;
47289;SDS011;33197;52.524;13.444;2022-08-04T02:01:43;5.40;;;3.38;;
47289;SDS011;33197;52.524;13.444;2022-08-04T02:04:15;6.68;;;3.00;;
47289;SDS011;33197;52.524;13.444;2022-08-04T02:06:59;4.47;;;3.70;;
47289;SDS011;33197;52.524;13.444;2022-08-04T02:10:04;6.63;;;3.40;;
47289;SDS011;33197;52.524;13.444;2022-08-04T02:15:07;9.02;;;3.35;;
47289;SDS011;33197;52.524;13.444;2022-08-04T02:22:39;4.10;;;3.20;;
47289;SDS011;33197;52.524;13.444;2022-08-04T02:25:12;4.10;;;3.23;;
47289;SDS011;33197;52.524;13.444;2022-08-04T02:28:31;8.10;;;3.17;;
47289;SDS011;33197;52.524;13.444;2022-08-04T02:33:37;4.47;;;3.20;;
47289;SDS011;33197;52.524;13.444;2022-08-04T02:36:12;6.00;;;3.58;;
47289;SDS011;33197;52.524;13.444;2022-08-04T02:38:46;6.00;;;3.25;;
47289;SDS011;33197;52.524;13.444;2022-08-04T02:41:21;9.18;;;3.28;;
47289;SDS011;33197;52.524;13.444;2022-08-04T02:43:50;4.88;;;3.28;;
47289;SDS011;33197;52.524;13.444;2022-08-04T02:46:19;3.78;;;3.08;;
47289;SDS011;33197;52.524;13.444;2022-08-04T02:48:47;9.85;;;3.13;;
47289;SDS011;33197;52.524;13.444;2022-08-04T02:51:16;4.88;;;3.20;;
47289;SDS011;33197;52.524;13.444;2022-08-04T02:54:06;10.65;;;3.97;;
47289;SDS011;33197;52.524;13.444;2022-08-04T02:56:34;6.50;;;3.58;;
47289;SDS011;33197;52.524;13.444;2022-08-04T02:59:08;4.82;;;3.20;;
47289;SDS011;33197;52.524;13.444;2022-08-04T03:01:37;7.57;;;3.40;;
47289;SDS011;33197;52.524;13.444;2022-08-04T03:04:45;8.05;;;3.05;;
47289;SDS011;33197;52.524;13.444;2022-08-04T03:12:33;5.68;;;3.22;;
47289;SDS011;33197;52.524;13.444;2022-08-04T03:23:50;8.48;;;3.75;;
47289;SDS011;33197;52.524;13.444;2022-08-04T03:35:00;9.20;;;4.25;;
47289;SDS011;33197;52.524;13.444;2022-08-04T03:44:05;5.60;;;3.55;;
47289;SDS011;33197;52.524;13.444;2022-08-04T03:49:19;10.43;;;3.53;;
47289;SDS011;33197;52.524;13.444;2022-08-04T04:03:43;6.38;;;3.80;;
47289;SDS011;33197;52.524;13.444;2022-08-04T04:48:08;8.40;;;4.75;;
47289;SDS011;33197;52.524;13.444;2022-08-04T04:53:22;6.45;;;5.13;;
47289;SDS011;33197;52.524;13.444;2022-08-04T04:56:02;7.38;;;4.47;;
47289;SDS011;33197;52.524;13.444;2022-08-04T04:58:33;9.50;;;4.90;;
47289;SDS011;33197;52.524;13.444;2022-08-04T05:03:47;10.75;;;4.82;;
47289;SDS011;33197;52.524;13.444;2022-08-04T05:12:49;7.10;;;5.15;;
47289;SDS011;33197;52.524;13.444;2022-08-04T05:15:10;13.73;;;5.68;;
47289;SDS011;33197;52.524;13.444;2022-08-04T05:17:42;11.77;;;5.15;;
47289;SDS011;33197;52.524;13.444;2022-08-04T05:20:20;7.20;;;5.18;;
47289;SDS011;33197;52.524;13.444;2022-08-04T05:25:30;10.63;;;6.03;;
47289;SDS011;33197;52.524;13.444;2022-08-04T05:28:05;6.35;;;4.70;;
47289;SDS011;33197;52.524;13.444;2022-08-04T05:30:44;6.18;;;5.57;;
47289;SDS011;33197;52.524;13.444;2022-08-04T05:33:26;11.77;;;5.47;;
47289;SDS011;33197;52.524;13.444;2022-08-04T05:35:59;13.68;;;5.78;;
47289;SDS011;33197;52.524;13.444;2022-08-04T05:38:50;5.43;;;4.90;;
47289;SDS011;33197;52.524;13.444;2022-08-04T05:41:20;11.00;;;5.10;;
47289;SDS011;33197;52.524;13.444;2022-08-04T05:43:48;14.57;;;5.68;;
47289;SDS011;33197;52.524;13.444;2022-08-04T05:46:15;7.10;;;5.20;;
47289;SDS011;33197;52.524;13.444;2022-08-04T05:48:43;9.18;;;4.90;;
47289;SDS011;33197;52.524;13.444;2022-08-04T05:51:11;18.33;;;6.18;;
47289;SDS011;33197;52.524;13.444;2022-08-04T05:53:38;12.48;;;5.75;;
47289;SDS011;33197;52.524;13.444;2022-08-04T05:56:11;7.63;;;4.82;;
47289;SDS011;33197;52.524;13.444;2022-08-04T05:58:40;11.27;;;5.03;;
47289;SDS011;33197;52.524;13.444;2022-08-04T06:01:08;13.75;;;4.93;;
47289;SDS011;33197;52.524;13.444;2022-08-04T06:03:36;8.15;;;4.88;;
47289;SDS011;33197;52.524;13.444;2022-08-04T06:06:04;12.98;;;5.90;;
47289;SDS011;33197;52.524;13.444;2022-08-04T06:08:32;11.38;;;5.25;;
47289;SDS011;33197;52.524;13.444;2022-08-04T06:11:01;7.97;;;5.03;;
47289;SDS011;33197;52.524;13.444;2022-08-04T06:13:32;9.48;;;4.75;;
47289;SDS011;33197;52.524;13.444;2022-08-04T06:16:15;20.45;;;5.65;;
47289;SDS011;33197;52.524;13.444;2022-08-04T06:18:57;9.95;;;5.13;;
47289;SDS011;33197;52.524;13.444;2022-08-04T06:21:47;10.73;;;5.15;;
47289;SDS011;33197;52.524;13.444;2022-08-04T06:24:19;16.67;;;6.18;;
47289;SDS011;33197;52.524;13.444;2022-08-04T06:26:49;10.27;;;6.40;;
47289;SDS011;33197;52.524;13.444;2022-08-04T06:29:18;10.45;;;5.53;;
47289;SDS011;33197;52.524;13.444;2022-08-04T06:31:52;10.75;;;5.38;;
47289;SDS011;33197;52.524;13.444;2022-08-04T06:34:44;15.43;;;5.53;;
47289;SDS011;33197;52.524;13.444;2022-08-04T06:37:11;13.25;;;5.68;;
47289;SDS011;33197;52.524;13.444;2022-08-04T06:40:02;8.38;;;4.97;;
47289;SDS011;33197;52.524;13.444;2022-08-04T06:42:50;11.23;;;4.93;;
47289;SDS011;33197;52.524;13.444;2022-08-04T06:45:18;11.02;;;5.95;;
47289;SDS011;33197;52.524;13.444;2022-08-04T06:47:46;11.18;;;5.50;;
47289;SDS011;33197;52.524;13.444;2022-08-04T06:50:13;16.40;;;5.47;;
47289;SDS011;33197;52.524;13.444;2022-08-04T06:53:02;10.82;;;5.53;;
47289;SDS011;33197;52.524;13.444;2022-08-04T06:55:30;23.17;;;5.70;;
47289;SDS011;33197;52.524;13.444;2022-08-04T06:57:57;8.95;;;5.28;;
47289;SDS011;33197;52.524;13.444;2022-08-04T07:00:29;12.38;;;5.38;;
47289;SDS011;33197;52.524;13.444;2022-08-04T07:02:58;15.52;;;5.20;;
47289;SDS011;33197;52.524;13.444;2022-08-04T07:05:26;8.98;;;4.90;;
47289;SDS011;33197;52.524;13.444;2022-08-04T07:07:53;18.30;;;5.00;;
47289;SDS011;33197;52.524;13.444;2022-08-04T07:10:25;9.32;;;4.88;;
47289;SDS011;33197;52.524;13.444;2022-08-04T07:12:54;11.00;;;4.93;;
47289;SDS011;33197;52.524;13.444;2022-08-04T07:15:23;11.68;;;4.55;;
47289;SDS011;33197;52.524;13.444;2022-08-04T07:17:52;17.45;;;5.25;;
47289;SDS011;33197;52.524;13.444;2022-08-04T07:20:19;12.00;;;4.63;;
47289;SDS011;33197;52.524;13.444;2022-08-04T07:23:02;11.15;;;4.60;;
47289;SDS011;33197;52.524;13.444;2022-08-04T07:25:30;12.25;;;4.68;;
47289;SDS011;33197;52.524;13.444;2022-08-04T07:28:18;7.95;;;4.60;;
47289;SDS011;33197;52.524;13.444;2022-08-04T07:30:46;10.35;;;4.20;;
47289;SDS011;33197;52.524;13.444;2022-08-04T07:33:15;7.03;;;5.10;;
47289;SDS011;33197;52.524;13.444;2022-08-04T07:35:43;10.13;;;5.30;;
47289;SDS011;33197;52.524;13.444;2022-08-04T07:38:31;8.85;;;4.57;;
47289;SDS011;33197;52.524;13.444;2022-08-04T07:41:03;9.77;;;4.13;;
47289;SDS011;33197;52.524;13.444;2022-08-04T07:43:51;11.32;;;4.60;;
47289;SDS011;33197;52.524;13.444;2022-08-04T07:46:20;10.23;;;4.57;;
47289;SDS011;33197;52.524;13.444;2022-08-04T07:48:47;10.43;;;4.30;;
47289;SDS011;33197;52.524;13.444;2022-08-04T07:51:15;8.32;;;5.13;;
47289;SDS011;33197;52.524;13.444;2022-08-04T07:53:43;9.80;;;4.25;;
47289;SDS011;33197;52.524;13.444;2022-08-04T07:56:21;11.23;;;4.57;;
47289;SDS011;33197;52.524;13.444;2022-08-04T07:58:49;10.30;;;4.03;;
47289;SDS011;33197;52.524;13.444;2022-08-04T08:01:17;7.78;;;3.95;;
47289;SDS011;33197;52.524;13.444;2022-08-04T08:03:45;7.15;;;4.43;;
47289;SDS011;33197;52.524;13.444;2022-08-04T08:06:12;14.07;;;4.13;;
47289;SDS011;33197;52.524;13.444;2022-08-04T08:08:57;12.80;;;4.70;;
47289;SDS011;33197;52.524;13.444;2022-08-04T08:11:47;8.27;;;3.75;;
47289;SDS011;33197;52.524;13.444;2022-08-04T08:14:35;7.95;;;4.85;;
47289;SDS011;33197;52.524;13.444;2022-08-04T08:17:03;8.00;;;4.97;;
47289;SDS011;33197;52.524;13.444;2022-08-04T08:19:30;11.05;;;3.75;;
47289;SDS011;33197;52.524;13.444;2022-08-04T08:21:58;8.07;;;5.05;;
47289;SDS011;33197;52.524;13.444;2022-08-04T08:24:32;11.52;;;3.85;;
47289;SDS011;33197;52.524;13.444;2022-08-04T08:27:02;10.57;;;3.83;;
47289;SDS011;33197;52.524;13.444;2022-08-04T08:29:32;9.32;;;4.15;;
47289;SDS011;33197;52.524;13.444;2022-08-04T08:32:01;9.88;;;3.97;;
47289;SDS011;33197;52.524;13.444;2022-08-04T08:34:34;10.13;;;3.47;;
47289;SDS011;33197;52.524;13.444;2022-08-04T08:37:08;8.93;;;3.10;;
47289;SDS011;33197;52.524;13.444;2022-08-04T08:53:29;6.78;;;3.78;;
47289;SDS011;33197;52.524;13.444;2022-08-04T09:13:07;9.98;;;3.38;;
47289;SDS011;33197;52.524;13.444;2022-08-04T09:15:44;9.68;;;3.67;;
47289;SDS011;33197;52.524;13.444;2022-08-04T09:18:24;7.78;;;3.63;;
47289;SDS011;33197;52.524;13.444;2022-08-04T09:29:56;13.35;;;3.38;;
47289;SDS011;33197;52.524;13.444;2022-08-04T09:32:09;9.38;;;3.17;;
47289;SDS011;33197;52.524;13.444;2022-08-04T09:37:45;7.05;;;3.42;;
47289;SDS011;33197;52.524;13.444;2022-08-04T09:46:38;8.07;;;3.78;;
47289;SDS011;33197;52.524;13.444;2022-08-04T09:49:13;5.38;;;2.67;;
47289;SDS011;33197;52.524;13.444;2022-08-04T10:00:18;9.10;;;3.60;;
47289;SDS011;33197;52.524;13.444;2022-08-04T10:03:06;6.25;;;3.30;;
47289;SDS011;33197;52.524;13.444;2022-08-04T10:17:11;4.65;;;2.95;;
47289;SDS011;33197;52.524;13.444;2022-08-04T10:19:46;4.53;;;2.60;;
47289;SDS011;33197;52.524;13.444;2022-08-04T10:22:20;5.80;;;2.80;;
47289;SDS011;33197;52.524;13.444;2022-08-04T10:28:05;4.75;;;2.53;;
47289;SDS011;33197;52.524;13.444;2022-08-04T10:30:38;3.53;;;2.83;;
47289;SDS011;33197;52.524;13.444;2022-08-04T10:36:11;5.65;;;2.30;;
47289;SDS011;33197;52.524;13.444;2022-08-04T10:44:15;6.47;;;3.03;;
47289;SDS011;33197;52.524;13.444;2022-08-04T10:46:51;5.18;;;2.60;;
47289;SDS011;33197;52.524;13.444;2022-08-04T10:49:22;6.32;;;2.53;;
47289;SDS011;33197;52.524;13.444;2022-08-04T10:56:54;4.20;;;2.42;;
47289;SDS011;33197;52.524;13.444;2022-08-04T10:59:26;7.43;;;2.65;;
47289;SDS011;33197;52.524;13.444;2022-08-04T11:01:57;5.28;;;2.72;;
47289;SDS011;33197;52.524;13.444;2022-08-04T11:07:05;9.05;;;2.90;;
47289;SDS011;33197;52.524;13.444;2022-08-04T11:09:33;2.85;;;2.00;;
47289;SDS011;33197;52.524;13.444;2022-08-04T11:14:36;4.13;;;2.65;;
47289;SDS011;33197;52.524;13.444;2022-08-04T11:17:10;11.30;;;3.40;;
47289;SDS011;33197;52.524;13.444;2022-08-04T11:22:54;3.50;;;2.55;;
47289;SDS011;33197;52.524;13.444;2022-08-04T11:28:22;3.47;;;2.40;;
47289;SDS011;33197;52.524;13.444;2022-08-04T11:34:19;3.75;;;2.47;;
47289;SDS011;33197;52.524;13.444;2022-08-04T11:39:34;3.28;;;2.50;;
47289;SDS011;33197;52.524;13.444;2022-08-04T11:52:42;5.70;;;2.85;;
47289;SDS011;33197;52.524;13.444;2022-08-04T11:55:12;5.10;;;2.55;;
47289;SDS011;33197;52.524;13.444;2022-08-04T11:57:42;7.82;;;2.85;;
47289;SDS011;33197;52.524;13.444;2022-08-04T12:00:13;7.18;;;2.70;;
47289;SDS011;33197;52.524;13.444;2022-08-04T12:03:05;4.88;;;2.95;;
47289;SDS011;33197;52.524;13.444;2022-08-04T12:06:14;5.50;;;3.22;;
47289;SDS011;33197;52.524;13.444;2022-08-04T12:08:48;7.22;;;2.80;;
47289;SDS011;33197;52.524;13.444;2022-08-04T12:14:22;9.85;;;3.83;;
47289;SDS011;33197;52.524;13.444;2022-08-04T12:17:10;5.60;;;2.70;;
47289;SDS011;33197;52.524;13.444;2022-08-04T12:19:43;4.28;;;2.45;;
47289;SDS011;33197;52.524;13.444;2022-08-04T12:22:32;4.70;;;2.60;;
47289;SDS011;33197;52.524;13.444;2022-08-04T12:25:08;7.63;;;2.90;;
47289;SDS011;33197;52.524;13.444;2022-08-04T12:27:40;4.18;;;2.65;;
47289;SDS011;33197;52.524;13.444;2022-08-04T12:30:19;2.80;;;2.55;;
47289;SDS011;33197;52.524;13.444;2022-08-04T12:33:09;7.15;;;2.85;;
47289;SDS011;33197;52.524;13.444;2022-08-04T12:35:46;5.95;;;2.75;;
47289;SDS011;33197;52.524;13.444;2022-08-04T12:38:38;6.75;;;2.80;;
47289;SDS011;33197;52.524;13.444;2022-08-04T12:41:13;5.65;;;3.33;;
47289;SDS011;33197;52.524;13.444;2022-08-04T12:43:47;2.97;;;2.70;;
47289;SDS011;33197;52.524;13.444;2022-08-04T12:46:20;5.20;;;2.45;;
47289;SDS011;33197;52.524;13.444;2022-08-04T12:48:49;5.50;;;2.53;;
47289;SDS011;33197;52.524;13.444;2022-08-04T12:51:16;2.92;;;2.35;;
47289;SDS011;33197;52.524;13.444;2022-08-04T12:54:05;6.60;;;2.92;;
47289;SDS011;33197;52.524;13.444;2022-08-04T12:56:33;5.00;;;3.10;;
47289;SDS011;33197;52.524;13.444;2022-08-04T12:59:01;4.50;;;2.70;;
47289;SDS011;33197;52.524;13.444;2022-08-04T13:01:30;4.82;;;2.95;;
47289;SDS011;33197;52.524;13.444;2022-08-04T13:04:19;3.28;;;2.67;;
47289;SDS011;33197;52.524;13.444;2022-08-04T13:07:06;6.80;;;2.65;;
47289;SDS011;33197;52.524;13.444;2022-08-04T13:09:39;5.50;;;2.50;;
47289;SDS011;33197;52.524;13.444;2022-08-04T13:12:16;5.07;;;2.67;;
47289;SDS011;33197;52.524;13.444;2022-08-04T13:14:48;2.55;;;2.35;;
47289;SDS011;33197;52.524;13.444;2022-08-04T13:17:17;5.47;;;2.50;;
47289;SDS011;33197;52.524;13.444;2022-08-04T13:19:47;6.75;;;2.70;;
47289;SDS011;33197;52.524;13.444;2022-08-04T13:22:25;3.03;;;2.42;;
47289;SDS011;33197;52.524;13.444;2022-08-04T13:24:56;3.13;;;2.58;;
47289;SDS011;33197;52.524;13.444;2022-08-04T13:27:44;6.50;;;2.60;;
47289;SDS011;33197;52.524;13.444;2022-08-04T13:36:47;4.70;;;2.65;;
47289;SDS011;33197;52.524;13.444;2022-08-04T13:39:16;3.38;;;2.03;;
47289;SDS011;33197;52.524;13.444;2022-08-04T13:41:45;4.15;;;2.60;;
47289;SDS011;33197;52.524;13.444;2022-08-04T13:44:26;2.30;;;2.10;;
47289;SDS011;33197;52.524;13.444;2022-08-04T13:46:56;3.08;;;2.33;;
47289;SDS011;33197;52.524;13.444;2022-08-04T13:49:25;3.47;;;2.70;;
47289;SDS011;33197;52.524;13.444;2022-08-04T13:52:12;5.75;;;2.47;;
47289;SDS011;33197;52.524;13.444;2022-08-04T13:54:40;3.47;;;2.38;;
47289;SDS011;33197;52.524;13.444;2022-08-04T13:57:11;3.10;;;2.30;;
47289;SDS011;33197;52.524;13.444;2022-08-04T13:59:47;10.32;;;2.67;;
47289;SDS011;33197;52.524;13.444;2022-08-04T14:02:33;5.95;;;2.85;;
47289;SDS011;33197;52.524;13.444;2022-08-04T14:05:09;5.05;;;2.45;;
47289;SDS011;33197;52.524;13.444;2022-08-04T14:07:46;5.97;;;2.53;;
47289;SDS011;33197;52.524;13.444;2022-08-04T14:10:15;3.45;;;2.70;;
47289;SDS011;33197;52.524;13.444;2022-08-04T14:12:45;3.83;;;2.40;;
47289;SDS011;33197;52.524;13.444;2022-08-04T14:15:33;9.07;;;2.70;;
47289;SDS011;33197;52.524;13.444;2022-08-04T14:18:27;5.45;;;2.70;;
47289;SDS011;33197;52.524;13.444;2022-08-04T14:23:53;5.65;;;3.70;;
47289;SDS011;33197;52.524;13.444;2022-08-04T14:26:23;5.22;;;3.80;;
47289;SDS011;33197;52.524;13.444;2022-08-04T14:29:08;4.93;;;4.57;;
47289;SDS011;33197;52.524;13.444;2022-08-04T14:32:02;5.80;;;5.40;;
47289;SDS011;33197;52.524;13.444;2022-08-04T14:34:41;7.55;;;7.05;;
47289;SDS011;33197;52.524;13.444;2022-08-04T14:37:12;9.15;;;8.48;;
47289;SDS011;33197;52.524;13.444;2022-08-04T14:39:45;13.07;;;12.00;;
47289;SDS011;33197;52.524;13.444;2022-08-04T14:42:45;18.88;;;17.75;;
47289;SDS011;33197;52.524;13.444;2022-08-04T14:48:02;20.63;;;19.50;;
47289;SDS011;33197;52.524;13.444;2022-08-04T14:53:13;38.22;;;36.40;;
47289;SDS011;33197;52.524;13.444;2022-08-04T14:55:45;45.83;;;43.53;;
47289;SDS011;33197;52.524;13.444;2022-08-04T14:58:26;53.53;;;50.63;;
47289;SDS011;33197;52.524;13.444;2022-08-04T15:01:07;67.63;;;63.85;;
47289;SDS011;33197;52.524;13.444;2022-08-04T15:03:39;80.53;;;76.82;;
47289;SDS011;33197;52.524;13.444;2022-08-04T15:06:17;91.03;;;86.65;;
47289;SDS011;33197;52.524;13.444;2022-08-04T15:08:49;98.82;;;94.18;;
47289;SDS011;33197;52.524;13.444;2022-08-04T15:11:17;105.22;;;100.43;;
47289;SDS011;33197;52.524;13.444;2022-08-04T15:13:53;103.15;;;98.30;;
47289;SDS011;33197;52.524;13.444;2022-08-04T15:16:22;68.78;;;65.45;;
47289;SDS011;33197;52.524;13.444;2022-08-04T15:18:50;57.28;;;54.33;;
47289;SDS011;33197;52.524;13.444;2022-08-04T15:21:23;51.13;;;48.55;;
47289;SDS011;33197;52.524;13.444;2022-08-04T15:23:51;55.70;;;53.10;;
47289;SDS011;33197;52.524;13.444;2022-08-04T15:26:22;46.90;;;44.58;;
47289;SDS011;33197;52.524;13.444;2022-08-04T15:28:54;55.75;;;53.15;;
47289;SDS011;33197;52.524;13.444;2022-08-04T15:31:24;42.67;;;40.47;;
47289;SDS011;33197;52.524;13.444;2022-08-04T15:34:13;45.40;;;43.22;;
47289;SDS011;33197;52.524;13.444;2022-08-04T15:36:46;52.53;;;50.03;;
47289;SDS011;33197;52.524;13.444;2022-08-04T15:39:26;48.67;;;46.30;;
47289;SDS011;33197;52.524;13.444;2022-08-04T15:47:17;42.85;;;40.78;;
47289;SDS011;33197;52.524;13.444;2022-08-04T15:49:44;45.17;;;42.97;;
47289;SDS011;33197;52.524;13.444;2022-08-04T15:52:13;39.65;;;37.67;;
47289;SDS011;33197;52.524;13.444;2022-08-04T15:54:44;41.00;;;38.53;;
47289;SDS011;33197;52.524;13.444;2022-08-04T15:57:55;47.80;;;45.53;;
47289;SDS011;33197;52.524;13.444;2022-08-04T16:00:27;57.03;;;54.33;;
47289;SDS011;33197;52.524;13.444;2022-08-04T16:02:55;51.13;;;48.60;;
47289;SDS011;33197;52.524;13.444;2022-08-04T16:07:56;54.35;;;51.55;;
47289;SDS011;33197;52.524;13.444;2022-08-04T16:12:57;21.10;;;20.02;;
47289;SDS011;33197;52.524;13.444;2022-08-04T16:18:11;10.65;;;9.82;;
47289;SDS011;33197;52.524;13.444;2022-08-04T16:20:53;10.60;;;9.98;;
47289;SDS011;33197;52.524;13.444;2022-08-04T16:37:20;6.22;;;5.70;;
47289;SDS011;33197;52.524;13.444;2022-08-04T16:39:48;6.57;;;3.67;;
47289;SDS011;33197;52.524;13.444;2022-08-04T16:45:00;3.97;;;2.95;;
47289;SDS011;33197;52.524;13.444;2022-08-04T16:50:13;3.38;;;2.92;;
47289;SDS011;33197;52.524;13.444;2022-08-04T16:52:44;7.70;;;2.83;;
47289;SDS011;33197;52.524;13.444;2022-08-04T16:55:16;2.72;;;2.53;;
47289;SDS011;33197;52.524;13.444;2022-08-04T16:57:48;4.18;;;2.47;;
47289;SDS011;33197;52.524;13.444;2022-08-04T17:00:16;2.72;;;2.13;;
47289;SDS011;33197;52.524;13.444;2022-08-04T17:02:43;3.25;;;2.30;;
47289;SDS011;33197;52.524;13.444;2022-08-04T17:05:20;4.75;;;2.30;;
47289;SDS011;33197;52.524;13.444;2022-08-04T17:08:08;3.47;;;2.15;;
47289;SDS011;33197;52.524;13.444;2022-08-04T17:10:55;3.35;;;1.95;;
47289;SDS011;33197;52.524;13.444;2022-08-04T17:16:13;2.30;;;2.10;;
47289;SDS011;33197;52.524;13.444;2022-08-04T17:18:45;2.08;;;1.50;;
47289;SDS011;33197;52.524;13.444;2022-08-04T17:23:46;3.47;;;2.28;;
47289;SDS011;33197;52.524;13.444;2022-08-04T17:26:37;2.10;;;1.90;;
47289;SDS011;33197;52.524;13.444;2022-08-04T17:29:07;5.82;;;2.33;;
47289;SDS011;33197;52.524;13.444;2022-08-04T17:31:36;3.20;;;2.20;;
47289;SDS011;33197;52.524;13.444;2022-08-04T17:34:10;2.95;;;2.03;;
47289;SDS011;33197;52.524;13.444;2022-08-04T17:36:42;6.10;;;1.95;;
47289;SDS011;33197;52.524;13.444;2022-08-04T17:39:10;4.22;;;1.90;;
47289;SDS011;33197;52.524;13.444;2022-08-04T17:41:42;3.65;;;2.13;;
47289;SDS011;33197;52.524;13.444;2022-08-04T17:44:15;6.53;;;1.95;;
47289;SDS011;33197;52.524;13.444;2022-08-04T17:46:44;2.83;;;2.05;;
47289;SDS011;33197;52.524;13.444;2022-08-04T17:51:50;4.90;;;2.40;;
47289;SDS011;33197;52.524;13.444;2022-08-04T17:54:44;6.57;;;2.20;;
47289;SDS011;33197;52.524;13.444;2022-08-04T17:57:15;3.25;;;2.25;;
47289;SDS011;33197;52.524;13.444;2022-08-04T17:59:52;5.28;;;2.15;;
47289;SDS011;33197;52.524;13.444;2022-08-04T18:02:28;4.78;;;2.15;;
47289;SDS011;33197;52.524;13.444;2022-08-04T18:05:00;5.32;;;2.28;;
47289;SDS011;33197;52.524;13.444;2022-08-04T18:07:40;6.78;;;2.10;;
47289;SDS011;33197;52.524;13.444;2022-08-04T18:10:35;6.72;;;2.67;;
47289;SDS011;33197;52.524;13.444;2022-08-04T18:13:22;4.50;;;2.35;;
47289;SDS011;33197;52.524;13.444;2022-08-04T18:15:58;4.47;;;2.35;;
47289;SDS011;33197;52.524;13.444;2022-08-04T18:18:30;5.57;;;2.00;;
47289;SDS011;33197;52.524;13.444;2022-08-04T18:20:57;6.70;;;2.05;;
47289;SDS011;33197;52.524;13.444;2022-08-04T18:23:30;6.28;;;1.98;;
47289;SDS011;33197;52.524;13.444;2022-08-04T18:25:59;3.13;;;2.40;;
47289;SDS011;33197;52.524;13.444;2022-08-04T18:28:29;4.93;;;2.65;;
47289;SDS011;33197;52.524;13.444;2022-08-04T18:31:00;6.88;;;2.30;;
47289;SDS011;33197;52.524;13.444;2022-08-04T18:33:28;6.18;;;2.20;;
47289;SDS011;33197;52.524;13.444;2022-08-04T18:36:10;2.78;;;2.40;;
47289;SDS011;33197;52.524;13.444;2022-08-04T18:39:00;4.38;;;3.15;;
47289;SDS011;33197;52.524;13.444;2022-08-04T18:41:42;5.45;;;2.92;;
47289;SDS011;33197;52.524;13.444;2022-08-04T18:44:29;7.35;;;3.20;;
47289;SDS011;33197;52.524;13.444;2022-08-04T18:46:57;7.63;;;3.40;;
47289;SDS011;33197;52.524;13.444;2022-08-04T18:49:44;7.53;;;3.42;;
47289;SDS011;33197;52.524;13.444;2022-08-04T18:52:32;5.93;;;3.70;;
47289;SDS011;33197;52.524;13.444;2022-08-04T18:54:59;6.65;;;3.63;;
47289;SDS011;33197;52.524;13.444;2022-08-04T18:57:28;6.10;;;3.97;;
47289;SDS011;33197;52.524;13.444;2022-08-04T19:00:16;5.22;;;3.00;;
47289;SDS011;33197;52.524;13.444;2022-08-04T19:02:46;9.13;;;3.83;;
47289;SDS011;33197;52.524;13.444;2022-08-04T19:05:13;4.05;;;3.05;;
47289;SDS011;33197;52.524;13.444;2022-08-04T19:08:00;7.53;;;3.70;;
47289;SDS011;33197;52.524;13.444;2022-08-04T19:10:47;9.50;;;3.83;;
47289;SDS011;33197;52.524;13.444;2022-08-04T19:13:23;6.15;;;3.45;;
47289;SDS011;33197;52.524;13.444;2022-08-04T19:15:52;8.90;;;3.33;;
47289;SDS011;33197;52.524;13.444;2022-08-04T19:18:24;7.53;;;3.40;;
47289;SDS011;33197;52.524;13.444;2022-08-04T19:20:53;12.15;;;4.88;;
47289;SDS011;33197;52.524;13.444;2022-08-04T19:23:22;5.32;;;3.22;;
47289;SDS011;33197;52.524;13.444;2022-08-04T19:26:09;5.10;;;3.33;;
47289;SDS011;33197;52.524;13.444;2022-08-04T19:28:54;8.60;;;4.45;;
47289;SDS011;33197;52.524;13.444;2022-08-04T19:31:21;5.80;;;4.40;;
47289;SDS011;33197;52.524;13.444;2022-08-04T19:34:00;11.27;;;4.38;;
47289;SDS011;33197;52.524;13.444;2022-08-04T19:36:30;7.90;;;4.28;;
47289;SDS011;33197;52.524;13.444;2022-08-04T19:39:00;6.18;;;4.05;;
47289;SDS011;33197;52.524;13.444;2022-08-04T19:41:28;6.07;;;4.35;;
47289;SDS011;33197;52.524;13.444;2022-08-04T19:44:18;6.90;;;4.25;;
47289;SDS011;33197;52.524;13.444;2022-08-04T19:50:55;6.30;;;3.78;;
47289;SDS011;33197;52.524;13.444;2022-08-04T19:53:24;5.95;;;4.18;;
47289;SDS011;33197;52.524;13.444;2022-08-04T19:56:03;5.35;;;3.97;;
47289;SDS011;33197;52.524;13.444;2022-08-04T19:58:30;8.00;;;3.75;;
47289;SDS011;33197;52.524;13.444;2022-08-04T20:00:57;5.72;;;3.88;;
47289;SDS011;33197;52.524;13.444;2022-08-04T20:03:25;6.40;;;4.15;;
47289;SDS011;33197;52.524;13.444;2022-08-04T20:06:12;10.52;;;3.78;;
47289;SDS011;33197;52.524;13.444;2022-08-04T20:08:40;9.93;;;4.32;;
47289;SDS011;33197;52.524;13.444;2022-08-04T20:11:14;5.15;;;3.50;;
47289;SDS011;33197;52.524;13.444;2022-08-04T20:13:44;7.45;;;3.83;;
47289;SDS011;33197;52.524;13.444;2022-08-04T20:16:21;12.60;;;3.63;;
47289;SDS011;33197;52.524;13.444;2022-08-04T20:18:56;4.60;;;3.83;;
47289;SDS011;33197;52.524;13.444;2022-08-04T20:21:30;5.57;;;3.58;;
47289;SDS011;33197;52.524;13.444;2022-08-04T20:24:20;5.43;;;3.42;;
47289;SDS011;33197;52.524;13.444;2022-08-04T20:27:12;8.95;;;3.97;;